Time;durP1;ratioP1;P1;durP2;ratioP2;P2;SDS_P1;SDS_P2;PMS_P1;PMS_P2;Temp;Humidity;BMP_temperature;BMP_pressure;BME280_temperature;BME280_humidity;BME280_pressure;Samples;Min_cycle;Max_cycle;Signal;HPM_P1;HPM_P2
2024/01/15 00:01:56;;;;;;;10.40;4.10;;;4.60;99.90;;;;;;4991348;28;20306;-23
2024/01/15 00:04:21;;;;;;;8.85;3.78;;;4.60;99.90;;;;;;4982556;28;20035;-23
2024/01/15 00:06:47;;;;;;;8.93;3.60;;;4.60;99.90;;;;;;4992486;28;20266;-22
2024/01/15 00:09:13;;;;;;;8.05;3.50;;;4.60;99.90;;;;;;4995860;28;20043;-23
2024/01/15 00:11:38;;;;;;;7.37;3.20;;;4.60;99.90;;;;;;4992839;28;20052;-24
2024/01/15 00:14:04;;;;;;;7.78;3.40;;;4.60;99.90;;;;;;4992361;28;20308;-22
2024/01/15 00:16:30;;;;;;;6.40;3.27;;;4.70;99.90;;;;;;4981176;28;20042;-22
2024/01/15 00:18:56;;;;;;;6.72;2.85;;;4.70;99.90;;;;;;4993685;28;20026;-22
2024/01/15 00:21:21;;;;;;;6.33;2.37;;;4.70;99.90;;;;;;4993666;28;20054;-23
2024/01/15 00:23:47;;;;;;;6.65;2.75;;;4.70;99.90;;;;;;4991793;28;20307;-22
2024/01/15 00:26:13;;;;;;;6.80;2.90;;;4.80;99.90;;;;;;4990084;28;20042;-22
2024/01/15 00:28:39;;;;;;;9.23;3.47;;;4.80;99.90;;;;;;4989649;28;20085;-22
2024/01/15 00:31:05;;;;;;;8.10;3.33;;;4.80;99.90;;;;;;4995814;28;20049;-22
2024/01/15 00:33:31;;;;;;;8.00;3.17;;;4.90;99.90;;;;;;4978623;28;20031;-24
2024/01/15 00:35:57;;;;;;;6.43;2.90;;;4.90;99.90;;;;;;4988840;28;20033;-21
2024/01/15 00:38:22;;;;;;;8.03;3.20;;;4.90;99.90;;;;;;4988941;28;21586;-21
2024/01/15 00:40:48;;;;;;;7.07;3.30;;;4.80;99.90;;;;;;4993144;28;20296;-22
2024/01/15 00:43:14;;;;;;;9.52;3.50;;;4.80;99.90;;;;;;4976152;28;20038;-23
2024/01/15 00:45:40;;;;;;;6.85;3.33;;;4.80;99.90;;;;;;4991039;28;20274;-23
2024/01/15 00:48:06;;;;;;;8.20;3.20;;;4.80;99.90;;;;;;4991427;28;20345;-22
2024/01/15 00:50:32;;;;;;;5.83;2.93;;;4.80;99.90;;;;;;4993173;28;20037;-21
2024/01/15 00:52:57;;;;;;;8.07;3.10;;;4.80;99.90;;;;;;4990502;28;20358;-23
2024/01/15 00:55:23;;;;;;;7.65;3.33;;;4.70;99.90;;;;;;4994190;28;20386;-24
2024/01/15 00:57:49;;;;;;;6.07;3.10;;;4.70;99.90;;;;;;4990207;28;20034;-22
2024/01/15 01:00:15;;;;;;;7.15;3.15;;;4.70;99.90;;;;;;4991097;28;20267;-21
2024/01/15 01:02:40;;;;;;;7.03;2.90;;;4.60;99.90;;;;;;4990845;28;20168;-22
2024/01/15 01:05:06;;;;;;;9.53;3.50;;;4.60;99.90;;;;;;4989693;28;20336;-22
2024/01/15 01:07:32;;;;;;;8.57;3.35;;;4.60;99.90;;;;;;4987463;28;20050;-24
2024/01/15 01:09:58;;;;;;;6.23;2.80;;;4.60;99.90;;;;;;4971283;28;20348;-21
2024/01/15 01:12:24;;;;;;;6.38;3.00;;;4.50;99.90;;;;;;4976032;28;20054;-22
2024/01/15 01:14:49;;;;;;;6.73;3.07;;;4.50;99.90;;;;;;4994535;28;20089;-22
2024/01/15 01:17:15;;;;;;;6.28;3.00;;;4.50;99.90;;;;;;4981466;28;20727;-22
2024/01/15 01:19:41;;;;;;;7.07;3.03;;;4.40;99.90;;;;;;4994964;28;20022;-21
2024/01/15 01:22:06;;;;;;;6.63;2.50;;;4.40;99.90;;;;;;4991728;28;20050;-23
2024/01/15 01:24:32;;;;;;;5.17;2.70;;;4.40;99.90;;;;;;4988226;28;20034;-22
2024/01/15 01:26:58;;;;;;;7.35;2.92;;;4.30;99.90;;;;;;4988688;28;20058;-22
2024/01/15 01:29:26;;;;;;;6.57;3.17;;;4.30;99.90;;;;;;4976147;28;20038;-22
2024/01/15 01:31:52;;;;;;;6.13;2.60;;;4.30;99.90;;;;;;4973630;28;20098;-22
2024/01/15 01:34:17;;;;;;;6.20;2.72;;;4.30;99.90;;;;;;4988692;28;20030;-22
2024/01/15 01:36:43;;;;;;;6.23;2.90;;;4.30;99.90;;;;;;4987972;28;20057;-22
2024/01/15 01:39:09;;;;;;;6.70;2.90;;;4.20;99.90;;;;;;4970438;28;20060;-22
2024/01/15 01:41:35;;;;;;;6.05;2.65;;;4.20;99.90;;;;;;4987886;28;20046;-21
2024/01/15 01:44:01;;;;;;;5.88;2.80;;;4.20;99.90;;;;;;4992772;28;20037;-24
2024/01/15 01:46:28;;;;;;;6.80;2.87;;;4.20;99.90;;;;;;4990861;28;20078;-23
2024/01/15 01:48:57;;;;;;;5.07;2.50;;;4.20;99.90;;;;;;4989086;28;20129;-24
2024/01/15 01:51:24;;;;;;;5.07;2.40;;;4.20;99.90;;;;;;4990115;28;20254;-24
2024/01/15 01:53:51;;;;;;;4.07;2.17;;;6.10;99.90;;;;;;4987303;28;20037;-19
2024/01/15 01:56:17;;;;;;;4.37;2.40;;;4.20;99.90;;;;;;4984036;28;20274;-20
2024/01/15 01:58:47;;;;;;;4.25;2.03;;;4.20;99.90;;;;;;4992561;28;20022;-20
2024/01/15 02:01:13;;;;;;;4.65;2.30;;;4.30;99.90;;;;;;4990552;28;20049;-19
2024/01/15 02:03:40;;;;;;;4.95;2.00;;;4.20;99.90;;;;;;4974594;28;21084;-21
2024/01/15 02:06:06;;;;;;;4.35;2.40;;;4.20;99.90;;;;;;4991503;28;20054;-20
2024/01/15 02:08:32;;;;;;;5.50;2.23;;;4.20;99.90;;;;;;4990318;28;20042;-19
2024/01/15 02:10:58;;;;;;;4.72;2.30;;;4.20;99.90;;;;;;4990482;28;20073;-20
2024/01/15 02:13:23;;;;;;;3.75;1.88;;;4.20;99.90;;;;;;4990522;28;20233;-20
2024/01/15 02:15:49;;;;;;;5.87;2.00;;;4.20;99.90;;;;;;4993177;28;20042;-19
2024/01/15 02:18:15;;;;;;;3.58;1.73;;;4.20;99.90;;;;;;4990990;28;20049;-20
2024/01/15 02:20:40;;;;;;;3.77;1.93;;;4.20;99.90;;;;;;4988891;28;20357;-20
2024/01/15 02:23:15;;;;;;;3.28;1.67;;;4.10;99.90;;;;;;4985213;28;20033;-19
2024/01/15 02:25:44;;;;;;;3.60;1.73;;;4.10;99.90;;;;;;4992399;28;20052;-20
2024/01/15 02:28:12;;;;;;;2.92;1.60;;;4.20;99.90;;;;;;4987965;28;20053;-20
2024/01/15 02:30:39;;;;;;;3.88;1.50;;;4.20;99.90;;;;;;4977509;28;20212;-19
2024/01/15 02:33:05;;;;;;;3.03;1.30;;;4.20;99.90;;;;;;4990189;28;20094;-20
2024/01/15 02:35:31;;;;;;;2.92;1.48;;;4.20;99.90;;;;;;4988368;28;20026;-21
2024/01/15 02:37:57;;;;;;;2.63;1.30;;;4.20;99.90;;;;;;4991822;28;20088;-20
2024/01/15 02:40:23;;;;;;;2.30;1.20;;;4.20;99.90;;;;;;4988647;28;20041;-20
2024/01/15 02:42:48;;;;;;;4.07;1.33;;;4.20;99.90;;;;;;4988193;28;20338;-21
2024/01/15 02:45:14;;;;;;;2.47;1.30;;;4.30;99.90;;;;;;4976419;28;20105;-21
2024/01/15 02:47:40;;;;;;;1.90;1.10;;;4.30;99.90;;;;;;4990805;28;20057;-19
2024/01/15 02:50:06;;;;;;;1.92;1.00;;;4.30;99.90;;;;;;4969656;28;20248;-20
2024/01/15 02:52:32;;;;;;;2.92;1.27;;;4.30;99.90;;;;;;4991905;28;20026;-20
2024/01/15 02:54:58;;;;;;;2.70;1.27;;;4.30;99.90;;;;;;4989928;28;20078;-20
2024/01/15 02:57:23;;;;;;;2.50;1.00;;;4.30;99.90;;;;;;4990651;28;20391;-19
2024/01/15 02:59:49;;;;;;;1.67;1.07;;;4.30;99.90;;;;;;4992091;28;20495;-19
2024/01/15 03:02:15;;;;;;;2.25;1.20;;;4.40;99.90;;;;;;4987692;28;20045;-20
2024/01/15 03:04:44;;;;;;;2.97;1.20;;;4.40;99.90;;;;;;4987320;28;20065;-20
2024/01/15 03:07:10;;;;;;;2.15;1.10;;;4.40;99.90;;;;;;4969372;28;20283;-19
2024/01/15 03:09:35;;;;;;;2.58;1.20;;;4.40;99.90;;;;;;4969442;28;20038;-19
2024/01/15 03:12:01;;;;;;;2.00;1.00;;;4.40;99.90;;;;;;4988221;28;20035;-20
2024/01/15 03:14:27;;;;;;;5.00;1.40;;;4.40;99.90;;;;;;4973651;28;20050;-19
2024/01/15 03:16:53;;;;;;;3.37;1.60;;;4.40;99.90;;;;;;4986348;28;20498;-20
2024/01/15 03:19:19;;;;;;;2.03;1.10;;;4.40;99.90;;;;;;4971728;28;20277;-20
2024/01/15 03:21:44;;;;;;;3.67;1.20;;;4.50;99.90;;;;;;4986790;28;20039;-20
2024/01/15 03:24:10;;;;;;;2.33;1.48;;;4.50;99.90;;;;;;4986889;28;20354;-22
2024/01/15 03:26:36;;;;;;;2.13;1.00;;;4.50;99.90;;;;;;4984365;28;20042;-23
2024/01/15 03:29:02;;;;;;;3.33;1.10;;;4.50;99.90;;;;;;4987721;28;20034;-21
2024/01/15 03:31:27;;;;;;;2.33;1.15;;;4.50;99.90;;;;;;4989487;28;20105;-23
2024/01/15 03:33:53;;;;;;;2.70;1.30;;;4.50;99.90;;;;;;4990750;28;20038;-23
2024/01/15 03:36:19;;;;;;;2.93;1.60;;;4.50;99.90;;;;;;4976494;28;20035;-22
2024/01/15 03:38:45;;;;;;;4.30;1.50;;;4.50;99.90;;;;;;4979885;28;20240;-23
2024/01/15 03:41:11;;;;;;;2.97;1.60;;;4.50;99.90;;;;;;4993695;28;20098;-22
2024/01/15 03:43:36;;;;;;;3.80;1.40;;;4.50;99.90;;;;;;4981944;28;20038;-23
2024/01/15 03:46:02;;;;;;;3.83;1.45;;;4.50;99.90;;;;;;4993143;28;20025;-22
2024/01/15 03:48:28;;;;;;;3.20;1.40;;;4.60;99.90;;;;;;4985378;28;20057;-22
2024/01/15 03:50:54;;;;;;;4.55;1.65;;;4.60;99.90;;;;;;4994718;28;20057;-22
2024/01/15 03:53:20;;;;;;;4.27;1.80;;;4.60;99.90;;;;;;4978376;28;20047;-22
2024/01/15 03:55:45;;;;;;;3.67;1.70;;;4.50;99.90;;;;;;4991563;28;20342;-21
2024/01/15 03:58:11;;;;;;;4.32;1.50;;;4.60;99.90;;;;;;4992825;28;20109;-23
2024/01/15 04:00:37;;;;;;;2.83;1.50;;;4.60;99.90;;;;;;4980242;28;20764;-23
2024/01/15 04:03:03;;;;;;;2.85;1.33;;;4.50;99.90;;;;;;4995820;28;20495;-22
2024/01/15 04:05:28;;;;;;;2.07;1.20;;;4.50;99.90;;;;;;4980544;28;20038;-23
2024/01/15 04:07:54;;;;;;;3.47;1.83;;;4.50;99.90;;;;;;4976663;28;20054;-23
2024/01/15 04:10:20;;;;;;;3.33;1.70;;;4.50;99.90;;;;;;4992920;28;20077;-25
2024/01/15 04:12:49;;;;;;;4.50;1.90;;;4.50;99.90;;;;;;4993628;28;20130;-22
2024/01/15 04:15:15;;;;;;;3.05;1.70;;;4.50;99.90;;;;;;4992572;28;20322;-20
2024/01/15 04:17:41;;;;;;;2.93;1.73;;;4.50;99.90;;;;;;4992086;28;20038;-21
2024/01/15 04:20:07;;;;;;;3.83;1.67;;;4.50;99.90;;;;;;4992988;28;20542;-20
2024/01/15 04:22:35;;;;;;;2.97;1.63;;;4.50;99.90;;;;;;4992985;28;20101;-20
2024/01/15 04:25:01;;;;;;;2.38;1.35;;;4.40;99.90;;;;;;4978461;28;20295;-20
2024/01/15 04:27:26;;;;;;;3.73;1.70;;;4.50;99.90;;;;;;4993250;28;20350;-21
2024/01/15 04:29:52;;;;;;;4.05;1.67;;;4.40;99.90;;;;;;4991474;28;20201;-21
2024/01/15 04:32:18;;;;;;;4.35;1.80;;;4.40;99.90;;;;;;4993999;28;20038;-20
2024/01/15 04:34:44;;;;;;;2.95;1.73;;;4.40;99.90;;;;;;4976200;28;20046;-21
2024/01/15 04:37:10;;;;;;;3.27;1.50;;;4.30;99.90;;;;;;4991815;28;20086;-20
2024/01/15 04:39:36;;;;;;;2.67;1.40;;;4.30;99.90;;;;;;4991508;28;20101;-20
2024/01/15 04:42:01;;;;;;;4.15;1.85;;;4.30;99.90;;;;;;4987775;28;20050;-20
2024/01/15 04:44:27;;;;;;;2.88;1.80;;;4.20;99.90;;;;;;4991249;28;20104;-21
2024/01/15 04:46:53;;;;;;;5.57;2.10;;;4.20;99.90;;;;;;4991681;28;20026;-20
2024/01/15 04:49:19;;;;;;;5.78;2.13;;;4.20;99.90;;;;;;4987680;28;20094;-20
2024/01/15 04:51:45;;;;;;;2.53;1.50;;;4.10;99.90;;;;;;4988257;28;20381;-21
2024/01/15 04:54:11;;;;;;;4.27;2.07;;;4.10;99.90;;;;;;4961301;28;20311;-19
2024/01/15 04:56:37;;;;;;;5.30;2.00;;;4.10;99.90;;;;;;4991154;28;20038;-20
2024/01/15 04:59:03;;;;;;;3.13;1.95;;;4.10;99.90;;;;;;4990396;28;20358;-20
2024/01/15 05:01:32;;;;;;;4.40;2.17;;;4.00;99.90;;;;;;4995122;28;20598;-20
2024/01/15 05:03:59;;;;;;;2.95;1.70;;;4.00;99.90;;;;;;4992595;28;20047;-20
2024/01/15 05:06:24;;;;;;;3.38;1.70;;;3.00;99.90;;;;;;4975182;28;20288;-20
2024/01/15 05:08:50;;;;;;;3.33;1.80;;;3.90;99.90;;;;;;4994363;28;20395;-20
2024/01/15 05:11:16;;;;;;;3.00;1.90;;;4.00;99.90;;;;;;4995587;28;20247;-20
2024/01/15 05:13:42;;;;;;;3.53;2.00;;;3.90;99.90;;;;;;4958491;28;20733;-20
2024/01/15 05:16:08;;;;;;;3.40;1.80;;;3.90;99.90;;;;;;4988993;28;20038;-21
2024/01/15 05:18:33;;;;;;;3.83;2.05;;;3.90;99.90;;;;;;4976706;28;20367;-20
2024/01/15 05:20:59;;;;;;;3.80;2.00;;;3.90;99.90;;;;;;4993068;28;20061;-19
2024/01/15 05:23:25;;;;;;;4.63;2.17;;;3.80;99.90;;;;;;4995569;28;20668;-21
2024/01/15 05:25:51;;;;;;;3.78;1.80;;;3.90;99.90;;;;;;4990717;28;20383;-20
2024/01/15 05:28:16;;;;;;;4.83;1.93;;;3.90;99.90;;;;;;4972589;28;20223;-19
2024/01/15 05:30:42;;;;;;;4.43;2.00;;;3.80;99.90;;;;;;4991900;28;20165;-20
2024/01/15 05:33:08;;;;;;;2.70;1.60;;;3.90;99.90;;;;;;4990552;28;20042;-20
2024/01/15 05:35:34;;;;;;;3.13;1.63;;;3.80;99.90;;;;;;4989792;28;20568;-20
2024/01/15 05:38:00;;;;;;;3.90;1.90;;;3.90;99.90;;;;;;4972348;28;20035;-20
2024/01/15 05:40:26;;;;;;;2.67;1.40;;;3.90;99.90;;;;;;4987084;28;20037;-20
2024/01/15 05:42:52;;;;;;;4.17;1.60;;;3.90;99.90;;;;;;4992184;28;20299;-20
2024/01/15 05:45:17;;;;;;;4.47;1.40;;;3.80;99.90;;;;;;4947090;28;20330;-21
2024/01/15 05:47:43;;;;;;;2.90;1.30;;;3.90;99.90;;;;;;4990901;28;20073;-20
2024/01/15 05:50:10;;;;;;;3.45;1.60;;;3.80;99.90;;;;;;4992216;28;20266;-19
2024/01/15 05:52:36;;;;;;;2.37;1.30;;;3.80;99.90;;;;;;4990599;28;20042;-19
2024/01/15 05:55:02;;;;;;;3.40;1.60;;;3.80;99.90;;;;;;4993816;28;20038;-20
2024/01/15 05:57:28;;;;;;;3.13;1.60;;;3.80;99.90;;;;;;4986972;28;20418;-19
2024/01/15 05:59:53;;;;;;;2.30;1.10;;;3.80;99.90;;;;;;4990503;28;20057;-20
2024/01/15 06:02:19;;;;;;;3.47;1.30;;;3.80;99.90;;;;;;4991430;28;20235;-22
2024/01/15 06:04:45;;;;;;;3.45;1.30;;;3.80;99.90;;;;;;4974008;28;20057;-20
2024/01/15 06:07:11;;;;;;;2.03;1.30;;;3.80;99.90;;;;;;4992370;28;20069;-19
2024/01/15 06:09:38;;;;;;;3.37;1.10;;;3.80;99.90;;;;;;4993144;28;20080;-19
2024/01/15 06:12:04;;;;;;;3.03;1.20;;;3.80;99.90;;;;;;4991124;28;20273;-20
2024/01/15 06:14:30;;;;;;;1.90;0.88;;;3.80;99.90;;;;;;4993467;28;20161;-20
2024/01/15 06:16:56;;;;;;;1.50;0.83;;;3.80;99.90;;;;;;4991325;28;20030;-20
2024/01/15 06:19:22;;;;;;;2.38;1.20;;;3.80;99.90;;;;;;4993368;28;20125;-20
2024/01/15 06:21:47;;;;;;;2.20;1.20;;;3.80;99.90;;;;;;4994131;28;20050;-20
2024/01/15 06:24:13;;;;;;;4.13;1.52;;;3.80;99.90;;;;;;4991183;28;20286;-20
2024/01/15 06:26:39;;;;;;;2.07;0.90;;;3.80;99.90;;;;;;4991961;28;20353;-19
2024/01/15 06:29:05;;;;;;;2.45;1.00;;;3.80;99.90;;;;;;4992829;28;20496;-21
2024/01/15 06:31:30;;;;;;;3.30;1.10;;;3.80;99.90;;;;;;4978427;28;20089;-20
2024/01/15 06:33:56;;;;;;;2.70;0.90;;;3.80;99.90;;;;;;4991953;28;20062;-21
2024/01/15 06:36:22;;;;;;;2.20;1.10;;;3.90;99.90;;;;;;4993477;28;20050;-20
2024/01/15 06:38:47;;;;;;;3.43;1.20;;;3.90;99.90;;;;;;4994164;28;20288;-21
2024/01/15 06:41:13;;;;;;;4.47;1.20;;;3.90;99.90;;;;;;4982075;28;20053;-21
2024/01/15 06:43:39;;;;;;;3.87;1.10;;;3.90;99.90;;;;;;4979169;28;20039;-21
2024/01/15 06:46:05;;;;;;;1.90;0.90;;;3.90;99.90;;;;;;4995151;28;20037;-19
2024/01/15 06:48:31;;;;;;;2.08;0.90;;;3.90;99.90;;;;;;4991339;28;20897;-19
2024/01/15 06:50:56;;;;;;;1.80;0.90;;;3.90;99.90;;;;;;4995811;28;20038;-20
2024/01/15 06:53:22;;;;;;;3.05;0.90;;;3.90;99.90;;;;;;4991862;28;20268;-20
2024/01/15 06:55:49;;;;;;;1.90;0.97;;;3.90;99.90;;;;;;4991514;28;20085;-20
2024/01/15 06:58:14;;;;;;;1.33;0.88;;;3.90;99.90;;;;;;4971883;28;21628;-20
2024/01/15 07:00:40;;;;;;;2.20;1.00;;;3.90;99.90;;;;;;4990529;28;20102;-21
2024/01/15 07:03:07;;;;;;;4.18;1.40;;;3.90;99.90;;;;;;4992452;28;20034;-20
2024/01/15 07:05:32;;;;;;;3.17;1.10;;;3.90;99.90;;;;;;4977234;28;20038;-20
2024/01/15 07:07:58;;;;;;;1.93;1.00;;;3.80;99.90;;;;;;4976675;28;20306;-20
2024/01/15 07:10:24;;;;;;;1.52;0.70;;;3.80;99.90;;;;;;4993371;28;20047;-21
2024/01/15 07:12:50;;;;;;;1.35;0.80;;;3.80;99.90;;;;;;4975777;28;20051;-21
2024/01/15 07:15:15;;;;;;;1.57;0.70;;;3.80;99.90;;;;;;4993876;28;20112;-20
2024/01/15 07:17:42;;;;;;;1.85;0.70;;;3.80;99.90;;;;;;4991507;28;20111;-20
2024/01/15 07:20:08;;;;;;;2.10;0.70;;;3.80;99.90;;;;;;4993092;28;20026;-19
2024/01/15 07:22:38;;;;;;;1.15;0.70;;;3.80;99.90;;;;;;4990964;28;20201;-19
2024/01/15 07:25:05;;;;;;;1.42;0.75;;;3.80;99.90;;;;;;4990332;28;20176;-20
2024/01/15 07:27:31;;;;;;;1.27;0.65;;;3.70;99.90;;;;;;4991885;28;20035;-20
2024/01/15 07:29:58;;;;;;;1.73;0.85;;;3.70;99.90;;;;;;4990591;28;20046;-22
2024/01/15 07:32:23;;;;;;;1.43;0.80;;;3.70;99.90;;;;;;4975703;28;20039;-20
2024/01/15 07:34:49;;;;;;;1.30;0.70;;;3.70;99.90;;;;;;4968805;28;20102;-20
2024/01/15 07:37:15;;;;;;;1.23;0.70;;;3.70;99.90;;;;;;4992305;28;20034;-19
2024/01/15 07:39:41;;;;;;;1.37;0.77;;;3.70;99.90;;;;;;4974681;28;20043;-20
2024/01/15 07:42:07;;;;;;;1.60;1.00;;;3.70;99.90;;;;;;4986507;28;20046;-20
2024/01/15 07:44:33;;;;;;;2.00;1.00;;;3.70;99.90;;;;;;4985925;28;20313;-23
2024/01/15 07:46:59;;;;;;;1.00;0.70;;;3.80;99.90;;;;;;4984862;28;20309;-22
2024/01/15 07:49:25;;;;;;;2.53;0.88;;;3.80;99.90;;;;;;4973012;28;20043;-22
2024/01/15 07:51:51;;;;;;;2.55;0.80;;;3.80;99.90;;;;;;4985773;28;20473;-23
2024/01/15 07:54:16;;;;;;;2.60;0.70;;;3.80;99.90;;;;;;4987144;28;20026;-23
2024/01/15 07:57:03;;;;;;;1.30;0.70;;;3.90;99.90;;;;;;4987697;28;20334;-23
2024/01/15 07:59:29;;;;;;;2.58;1.00;;;3.90;99.90;;;;;;4983005;28;20186;-22
2024/01/15 08:01:55;;;;;;;1.77;0.90;;;3.90;99.90;;;;;;4981903;28;20081;-24
2024/01/15 08:04:21;;;;;;;1.63;1.08;;;3.90;99.90;;;;;;4986773;28;20392;-20
2024/01/15 08:06:48;;;;;;;2.05;0.70;;;4.00;99.90;;;;;;4990528;28;20049;-22
2024/01/15 08:09:13;;;;;;;1.23;0.80;;;4.00;99.90;;;;;;4968131;28;20049;-20
2024/01/15 08:11:41;;;;;;;2.17;0.80;;;4.10;99.90;;;;;;4991848;28;20051;-21
2024/01/15 08:14:08;;;;;;;2.58;0.90;;;4.10;99.90;;;;;;4984729;28;20042;-19
2024/01/15 08:16:34;;;;;;;1.08;0.70;;;4.00;99.90;;;;;;4985583;28;20452;-19
2024/01/15 08:18:59;;;;;;;1.38;0.90;;;4.10;99.90;;;;;;4993127;28;20037;-19
2024/01/15 08:21:27;;;;;;;1.10;0.73;;;4.20;99.90;;;;;;4997038;28;20339;-21
2024/01/15 08:23:52;;;;;;;1.98;0.70;;;4.20;99.90;;;;;;4973004;28;20043;-19
2024/01/15 08:26:18;;;;;;;2.40;0.80;;;4.20;99.90;;;;;;4995233;28;20125;-20
2024/01/15 08:28:44;;;;;;;1.40;0.90;;;4.20;99.90;;;;;;4993778;28;20108;-20
2024/01/15 08:31:09;;;;;;;3.03;0.80;;;4.20;99.90;;;;;;4977349;28;20309;-20
2024/01/15 08:33:35;;;;;;;3.80;0.70;;;4.30;99.90;;;;;;4992383;28;20585;-22
2024/01/15 08:36:02;;;;;;;1.80;0.70;;;4.30;99.90;;;;;;4994546;28;20254;-20
2024/01/15 08:38:28;;;;;;;1.65;0.80;;;4.30;99.90;;;;;;4995455;28;20026;-20
2024/01/15 08:40:56;;;;;;;2.27;0.90;;;4.40;99.90;;;;;;4977251;28;20102;-20
2024/01/15 08:43:22;;;;;;;1.92;0.98;;;4.30;99.90;;;;;;4991449;28;20113;-20
2024/01/15 08:45:48;;;;;;;2.00;0.87;;;4.30;99.90;;;;;;4995035;28;20034;-19
2024/01/15 08:48:13;;;;;;;1.70;0.80;;;4.40;99.90;;;;;;4992473;28;20030;-19
2024/01/15 08:50:39;;;;;;;3.23;0.97;;;4.40;99.90;;;;;;4994312;28;20088;-21
2024/01/15 08:53:05;;;;;;;2.27;0.87;;;4.40;99.90;;;;;;4972615;28;20296;-20
2024/01/15 08:55:31;;;;;;;2.53;0.80;;;4.40;99.90;;;;;;4991116;28;20034;-21
2024/01/15 08:57:56;;;;;;;2.10;1.00;;;4.40;99.90;;;;;;4993507;28;20038;-20
2024/01/15 09:00:22;;;;;;;3.65;1.20;;;4.50;99.90;;;;;;4992230;28;20259;-21
2024/01/15 09:02:48;;;;;;;2.70;0.90;;;4.50;99.90;;;;;;4976020;28;20069;-20
2024/01/15 09:05:13;;;;;;;2.55;1.00;;;4.50;99.90;;;;;;4991375;28;20266;-20
2024/01/15 09:07:39;;;;;;;1.90;0.97;;;4.60;99.90;;;;;;4993599;28;20240;-21
2024/01/15 09:10:05;;;;;;;2.57;0.97;;;4.70;99.90;;;;;;4988793;28;20043;-20
2024/01/15 09:12:31;;;;;;;2.75;0.88;;;4.70;99.90;;;;;;4995851;28;20270;-20
2024/01/15 09:14:56;;;;;;;2.63;1.10;;;4.70;99.90;;;;;;4978151;28;20090;-22
2024/01/15 09:17:25;;;;;;;2.53;1.13;;;4.80;99.90;;;;;;4979615;28;20037;-22
2024/01/15 09:19:51;;;;;;;1.75;1.00;;;4.80;99.90;;;;;;4993956;28;20129;-22
2024/01/15 09:22:18;;;;;;;2.45;0.90;;;4.90;99.90;;;;;;4973203;28;20204;-21
2024/01/15 09:24:45;;;;;;;2.23;0.90;;;4.90;99.90;;;;;;4989771;28;20040;-22
2024/01/15 09:27:11;;;;;;;2.88;1.00;;;4.90;99.90;;;;;;4992191;28;20768;-22
2024/01/15 09:29:39;;;;;;;2.20;0.98;;;5.00;99.90;;;;;;4974455;28;20041;-21
2024/01/15 09:32:07;;;;;;;2.42;0.95;;;5.00;99.90;;;;;;4993089;28;20025;-23
2024/01/15 09:34:33;;;;;;;3.50;1.20;;;5.10;99.90;;;;;;4976000;28;20265;-22
2024/01/15 09:36:59;;;;;;;2.53;1.10;;;5.20;99.90;;;;;;4990527;28;20226;-23
2024/01/15 09:39:26;;;;;;;4.32;1.67;;;5.30;99.90;;;;;;4989026;28;20212;-22
2024/01/15 09:41:52;;;;;;;4.10;1.20;;;5.40;99.90;;;;;;4991764;28;20259;-23
2024/01/15 09:44:19;;;;;;;2.95;1.00;;;5.70;99.90;;;;;;4992619;28;20250;-22
2024/01/15 09:46:46;;;;;;;4.00;1.58;;;6.00;99.90;;;;;;4988444;28;20606;-23
2024/01/15 09:49:12;;;;;;;2.63;1.37;;;6.30;99.90;;;;;;4989089;28;20122;-23
2024/01/15 09:51:39;;;;;;;3.45;1.30;;;6.60;99.90;;;;;;4960002;28;20042;-24
2024/01/15 09:54:05;;;;;;;1.90;1.10;;;7.00;99.90;;;;;;4988096;28;20508;-23
2024/01/15 09:56:31;;;;;;;3.22;1.30;;;7.40;99.90;;;;;;4972963;28;20353;-22
2024/01/15 09:59:00;;;;;;;3.13;1.20;;;7.80;99.90;;;;;;4991064;28;20045;-24
2024/01/15 10:01:26;;;;;;;3.40;1.15;;;8.30;99.90;;;;;;4958751;28;20096;-23
2024/01/15 10:03:53;;;;;;;1.70;1.00;;;8.60;99.90;;;;;;4994919;28;20105;-25
2024/01/15 10:06:21;;;;;;;5.03;1.40;;;9.00;99.90;;;;;;4991513;28;20038;-21
2024/01/15 10:08:51;;;;;;;2.67;1.10;;;9.40;99.90;;;;;;4978889;28;20113;-21
2024/01/15 10:11:17;;;;;;;2.88;1.00;;;9.70;99.90;;;;;;4991597;28;20184;-22
2024/01/15 10:13:47;;;;;;;2.25;1.10;;;10.00;99.90;;;;;;4992663;28;20073;-22
2024/01/15 10:16:12;;;;;;;2.60;1.00;;;10.40;99.90;;;;;;4972676;28;20092;-23
2024/01/15 10:18:39;;;;;;;2.97;0.88;;;10.70;99.90;;;;;;4992845;28;20391;-23
2024/01/15 10:21:08;;;;;;;2.97;1.10;;;11.00;99.90;;;;;;4992546;28;20065;-25
2024/01/15 10:23:33;;;;;;;2.50;1.20;;;11.20;99.90;;;;;;4991853;28;20042;-24
2024/01/15 10:26:00;;;;;;;1.90;1.20;;;11.50;99.90;;;;;;4973583;28;20046;-23
2024/01/15 10:28:31;;;;;;;2.83;0.90;;;11.70;99.90;;;;;;4991208;28;20097;-22
2024/01/15 10:31:01;;;;;;;2.90;1.05;;;12.00;99.90;;;;;;4972647;28;20054;-24
2024/01/15 10:33:27;;;;;;;2.75;1.10;;;12.30;99.90;;;;;;4970227;28;20056;-23
2024/01/15 10:36:00;;;;;;;3.23;1.50;;;12.60;99.90;;;;;;4972697;28;20283;-22
2024/01/15 10:38:26;;;;;;;2.85;1.10;;;12.80;99.90;;;;;;4985241;28;20039;-21
2024/01/15 10:40:53;;;;;;;1.77;0.95;;;13.00;99.90;;;;;;4989895;28;20060;-23
2024/01/15 10:43:20;;;;;;;2.70;1.10;;;13.10;99.90;;;;;;4990602;28;20034;-22
2024/01/15 10:45:47;;;;;;;4.10;1.20;;;13.30;99.90;;;;;;4987972;28;20100;-24
2024/01/15 10:48:13;;;;;;;2.53;1.20;;;13.40;99.90;;;;;;4985369;28;20113;-23
2024/01/15 10:50:39;;;;;;;1.58;0.90;;;13.60;99.90;;;;;;4989258;28;20057;-22
2024/01/15 10:53:06;;;;;;;2.85;0.93;;;13.80;99.90;;;;;;4982453;28;20034;-25
2024/01/15 10:55:37;;;;;;;3.08;1.00;;;14.00;99.90;;;;;;4989176;28;20237;-23
2024/01/15 10:58:03;;;;;;;2.28;0.85;;;14.20;99.90;;;;;;4988461;28;20026;-23
2024/01/15 11:00:30;;;;;;;2.37;0.70;;;14.10;99.90;;;;;;4993210;28;20038;-23
2024/01/15 11:02:56;;;;;;;3.72;1.00;;;14.00;99.90;;;;;;4978201;28;20385;-23
2024/01/15 11:05:22;;;;;;;3.08;0.90;;;13.70;99.90;;;;;;4970703;28;20049;-24
2024/01/15 11:07:49;;;;;;;2.72;1.00;;;13.50;99.90;;;;;;4989052;28;20125;-21
2024/01/15 11:10:41;;;;;;;4.05;1.10;;;13.20;99.90;;;;;;4974458;28;20042;-23
2024/01/15 11:13:39;;;;;;;1.80;0.83;;;12.80;99.90;;;;;;4977054;28;20031;-22
2024/01/15 11:16:11;;;;;;;2.72;0.80;;;12.30;99.90;;;;;;4972466;28;20058;-24
2024/01/15 11:18:39;;;;;;;2.97;0.90;;;11.90;99.90;;;;;;4992172;28;20038;-22
2024/01/15 11:21:16;;;;;;;3.67;1.00;;;11.50;99.90;;;;;;4993342;28;20050;-21
2024/01/15 11:23:46;;;;;;;1.20;0.70;;;11.20;99.90;;;;;;4987537;28;20042;-22
2024/01/15 11:26:31;;;;;;;1.87;0.83;;;10.90;99.90;;;;;;4972133;28;20044;-24
2024/01/15 11:28:59;;;;;;;2.55;0.80;;;10.70;99.90;;;;;;4988966;28;20027;-24
2024/01/15 11:31:28;;;;;;;3.40;0.70;;;10.50;99.90;;;;;;4987316;28;20050;-23
2024/01/15 11:33:55;;;;;;;1.67;0.82;;;10.40;99.90;;;;;;4987252;28;20037;-23
2024/01/15 11:36:39;;;;;;;2.65;0.82;;;10.30;99.90;;;;;;4991469;28;20104;-22
2024/01/15 11:39:32;;;;;;;4.53;0.80;;;10.30;99.90;;;;;;4991265;28;20069;-22
2024/01/15 11:42:02;;;;;;;3.75;0.98;;;10.40;99.90;;;;;;4987806;28;20039;-23
2024/01/15 11:44:29;;;;;;;3.78;0.90;;;10.50;99.90;;;;;;4974821;28;20038;-22
2024/01/15 11:47:05;;;;;;;1.80;0.80;;;10.70;99.90;;;;;;4987192;28;20049;-23
2024/01/15 11:50:01;;;;;;;2.72;0.70;;;10.90;99.90;;;;;;4987044;28;20054;-22
2024/01/15 11:52:35;;;;;;;2.37;0.70;;;11.40;99.90;;;;;;4986026;28;20317;-24
2024/01/15 11:55:36;;;;;;;1.95;0.80;;;11.90;99.90;;;;;;4989078;28;20046;-22
2024/01/15 11:58:05;;;;;;;2.17;0.77;;;12.30;99.90;;;;;;4993366;28;20027;-22
2024/01/15 12:00:31;;;;;;;2.95;0.73;;;12.50;99.90;;;;;;4992576;28;20057;-23
2024/01/15 12:02:59;;;;;;;2.20;0.77;;;12.50;99.90;;;;;;4976951;28;20453;-23
2024/01/15 12:05:25;;;;;;;1.47;0.60;;;12.40;99.90;;;;;;4992113;28;20270;-23
2024/01/15 12:07:51;;;;;;;2.70;0.70;;;12.30;99.90;;;;;;4990855;28;20049;-23
2024/01/15 12:10:19;;;;;;;1.27;0.80;;;13.10;99.90;;;;;;4974216;28;20050;-23
2024/01/15 12:13:00;;;;;;;1.77;0.67;;;11.80;99.90;;;;;;4990620;28;20038;-26
2024/01/15 12:15:30;;;;;;;2.10;0.68;;;11.50;99.90;;;;;;4993745;28;20463;-22
2024/01/15 12:17:59;;;;;;;2.60;0.80;;;11.20;99.90;;;;;;4991715;28;20043;-22
2024/01/15 12:20:26;;;;;;;2.22;0.88;;;11.00;99.90;;;;;;4992260;28;20320;-24
2024/01/15 12:22:52;;;;;;;2.67;0.90;;;10.90;99.90;;;;;;4985600;28;20113;-22
2024/01/15 12:25:17;;;;;;;2.33;0.70;;;10.70;99.90;;;;;;4990887;28;20325;-23
2024/01/15 12:27:43;;;;;;;3.67;1.05;;;10.70;99.90;;;;;;4971620;28;20027;-22
2024/01/15 12:30:13;;;;;;;4.03;0.90;;;10.70;99.90;;;;;;4993107;28;20331;-22
2024/01/15 12:32:41;;;;;;;3.60;1.00;;;10.50;99.90;;;;;;4982901;28;20046;-22
2024/01/15 12:35:08;;;;;;;2.33;1.00;;;10.50;99.90;;;;;;4988911;28;20293;-23
2024/01/15 12:37:36;;;;;;;1.65;0.73;;;10.40;99.90;;;;;;4992098;28;20072;-24
2024/01/15 12:40:06;;;;;;;2.42;0.80;;;10.50;99.90;;;;;;4992001;28;20034;-24
2024/01/15 12:42:41;;;;;;;2.55;0.90;;;10.30;99.90;;;;;;4993857;28;20038;-22
2024/01/15 12:45:09;;;;;;;1.52;0.80;;;10.10;99.90;;;;;;4991888;28;20034;-22
2024/01/15 12:47:35;;;;;;;1.87;0.60;;;9.80;99.90;;;;;;4992537;28;20026;-21
2024/01/15 12:50:01;;;;;;;1.33;0.55;;;9.60;99.90;;;;;;4980745;28;20053;-20
2024/01/15 12:52:28;;;;;;;0.68;0.40;;;9.30;99.90;;;;;;4987938;28;20345;-20
2024/01/15 12:54:54;;;;;;;1.60;0.50;;;9.00;99.90;;;;;;4982421;28;20077;-20